Time;durP1;ratioP1;P1;durP2;ratioP2;P2;SDS_P1;SDS_P2;PMS_P1;PMS_P2;Temp;Humidity;BMP_temperature;BMP_pressure;BME280_temperature;BME280_humidity;BME280_pressure;Samples;Min_cycle;Max_cycle;Signal;HPM_P1;HPM_P2
2023/04/04 00:01:23;;;;;;;4.67;2.63;;;0.90;99.90;;;;;;4933703;28;20768;-94
2023/04/04 00:03:50;;;;;;;6.20;2.63;;;1.20;99.90;;;;;;4934496;28;20448;-95
2023/04/04 00:06:19;;;;;;;4.97;2.65;;;0.70;99.90;;;;;;4934389;28;20408;-94
2023/04/04 00:08:45;;;;;;;4.60;2.50;;;0.90;99.90;;;;;;4935022;28;20436;-94
2023/04/04 00:11:12;;;;;;;3.58;1.73;;;0.90;99.90;;;;;;4934531;28;20419;-94
2023/04/04 00:13:38;;;;;;;5.53;2.30;;;0.90;99.90;;;;;;4934005;28;20460;-93
2023/04/04 00:16:04;;;;;;;3.55;2.13;;;0.90;99.90;;;;;;4934273;28;20443;-92
2023/04/04 00:18:31;;;;;;;4.70;1.90;;;0.80;99.90;;;;;;4933474;28;20408;-92
2023/04/04 00:20:57;;;;;;;4.38;1.98;;;1.60;99.90;;;;;;4933733;28;20511;-94
2023/04/04 00:23:23;;;;;;;5.00;2.50;;;0.80;99.90;;;;;;4934123;28;20420;-95
2023/04/04 00:25:52;;;;;;;4.55;2.33;;;0.90;99.90;;;;;;4934120;28;20424;-93
2023/04/04 00:28:19;;;;;;;5.18;2.42;;;0.70;99.90;;;;;;4933874;28;20416;-93
2023/04/04 00:30:48;;;;;;;4.17;2.13;;;0.80;99.90;;;;;;4933052;28;20415;-92
2023/04/04 00:33:14;;;;;;;4.82;2.35;;;1.00;99.90;;;;;;4933932;28;20479;-92
2023/04/04 00:35:40;;;;;;;4.45;2.63;;;0.80;99.90;;;;;;4933290;28;20423;-92
2023/04/04 00:38:06;;;;;;;3.95;2.10;;;0.90;99.90;;;;;;4935738;28;20439;-94
2023/04/04 00:40:42;;;;;;;5.45;2.50;;;0.60;99.90;;;;;;4937247;28;20491;-93
2023/04/04 00:43:08;;;;;;;4.10;1.83;;;0.70;99.90;;;;;;4937598;28;20773;-96
2023/04/04 00:45:34;;;;;;;5.17;2.20;;;0.50;99.90;;;;;;4938325;28;20420;-92
2023/04/04 00:48:02;;;;;;;4.20;2.00;;;0.50;99.90;;;;;;4936748;28;20420;-93
2023/04/04 00:50:28;;;;;;;3.67;2.20;;;0.40;99.90;;;;;;4937374;28;20503;-93
2023/04/04 00:52:54;;;;;;;4.47;2.03;;;0.40;99.90;;;;;;4937050;28;20411;-94
2023/04/04 00:55:19;;;;;;;4.78;2.17;;;0.40;99.90;;;;;;4937615;28;20400;-94
2023/04/04 00:57:45;;;;;;;4.72;2.08;;;0.30;99.90;;;;;;4937021;28;20436;-94
2023/04/04 01:00:12;;;;;;;3.63;2.03;;;0.50;99.90;;;;;;4937383;28;20411;-93
2023/04/04 01:02:38;;;;;;;3.75;1.80;;;0.00;99.90;;;;;;4937488;28;20408;-95
2023/04/04 01:05:05;;;;;;;4.18;2.10;;;0.20;99.90;;;;;;4936972;28;20916;-92
2023/04/04 01:07:31;;;;;;;4.97;2.80;;;0.60;99.90;;;;;;4937529;28;20439;-94
2023/04/04 01:09:57;;;;;;;5.35;2.72;;;0.30;99.90;;;;;;4936273;28;20420;-93
2023/04/04 01:12:24;;;;;;;4.32;2.55;;;0.20;99.90;;;;;;4937577;28;20420;-92
2023/04/04 01:14:50;;;;;;;4.90;2.35;;;0.40;99.90;;;;;;4936979;28;20483;-94
2023/04/04 01:17:15;;;;;;;5.53;2.30;;;0.40;99.90;;;;;;4937049;28;20436;-92
2023/04/04 01:19:57;;;;;;;4.30;2.47;;;0.10;99.90;;;;;;4936790;28;20503;-93
2023/04/04 01:22:23;;;;;;;4.03;2.17;;;0.20;99.90;;;;;;4952903;28;20438;-93
2023/04/04 01:24:50;;;;;;;4.57;2.50;;;0.20;99.90;;;;;;4936849;28;20408;-94
2023/04/04 01:27:16;;;;;;;4.07;2.50;;;0.20;99.90;;;;;;4936334;28;20411;-93
2023/04/04 01:29:41;;;;;;;5.43;2.90;;;0.10;99.90;;;;;;4937198;28;20414;-92
2023/04/04 01:32:24;;;;;;;3.73;2.40;;;0.80;99.90;;;;;;4935881;28;20499;-92
2023/04/04 01:35:19;;;;;;;5.07;2.83;;;0.60;99.90;;;;;;4937012;28;21254;-93
2023/04/04 01:38:06;;;;;;;5.15;2.70;;;0.30;99.90;;;;;;4937150;28;20953;-93
2023/04/04 01:40:36;;;;;;;6.43;3.00;;;0.10;99.90;;;;;;4935851;28;20409;-93
2023/04/04 01:43:02;;;;;;;5.00;3.03;;;0.80;99.90;;;;;;4936630;28;20419;-92
2023/04/04 01:45:28;;;;;;;5.20;3.33;;;0.10;99.90;;;;;;4936227;28;20767;-92
2023/04/04 01:47:55;;;;;;;5.65;3.33;;;0.10;99.90;;;;;;4936333;28;20417;-95
2023/04/04 01:50:22;;;;;;;6.43;3.87;;;0.10;99.90;;;;;;4935458;28;20412;-92
2023/04/04 01:52:48;;;;;;;5.30;3.28;;;0.10;99.90;;;;;;4935616;28;20428;-93
2023/04/04 01:55:14;;;;;;;6.40;3.22;;;0.10;99.90;;;;;;4936441;28;20479;-93
2023/04/04 01:57:40;;;;;;;7.28;3.55;;;0.10;99.90;;;;;;4935630;28;20432;-93
2023/04/04 02:00:06;;;;;;;6.05;3.25;;;0.10;99.90;;;;;;4936598;28;20404;-93
2023/04/04 02:02:32;;;;;;;6.90;3.88;;;0.00;99.90;;;;;;4934766;28;20482;-94
2023/04/04 02:04:58;;;;;;;8.20;4.35;;;0.00;99.90;;;;;;4936224;28;20416;-96
2023/04/04 02:07:24;;;;;;;6.93;3.50;;;0.10;99.90;;;;;;4936127;28;20431;-93
2023/04/04 02:09:50;;;;;;;6.47;3.57;;;0.50;99.90;;;;;;4935863;28;20495;-95
2023/04/04 02:12:16;;;;;;;8.57;4.47;;;0.30;99.90;;;;;;4936440;28;20564;-94
2023/04/04 02:14:42;;;;;;;6.38;3.90;;;0.10;99.90;;;;;;4935627;28;20418;-94
2023/04/04 02:17:07;;;;;;;6.35;4.20;;;0.50;99.90;;;;;;4936012;28;20432;-94
2023/04/04 02:19:34;;;;;;;7.07;4.65;;;0.70;99.90;;;;;;4935811;28;20425;-92
2023/04/04 02:22:00;;;;;;;7.35;4.13;;;0.10;99.90;;;;;;4935935;28;20412;-94
2023/04/04 02:24:26;;;;;;;6.73;4.53;;;-0.10;99.90;;;;;;4951001;28;20436;-94
2023/04/04 02:26:51;;;;;;;7.97;5.07;;;0.00;99.90;;;;;;4936093;28;20420;-92
2023/04/04 02:29:18;;;;;;;7.53;4.10;;;0.00;99.90;;;;;;4936298;28;20415;-95
2023/04/04 02:31:43;;;;;;;7.03;4.72;;;0.10;99.90;;;;;;4935410;28;20408;-94
2023/04/04 02:34:09;;;;;;;7.50;5.27;;;0.00;99.90;;;;;;4935893;28;20424;-93
2023/04/04 02:36:35;;;;;;;10.53;5.87;;;0.30;99.90;;;;;;4935132;28;20428;-93
2023/04/04 02:39:01;;;;;;;8.18;5.85;;;0.20;99.90;;;;;;4935621;28;21107;-94
2023/04/04 02:41:27;;;;;;;9.23;5.57;;;-0.10;99.90;;;;;;4934621;28;20499;-94
2023/04/04 02:43:53;;;;;;;9.60;5.95;;;0.00;99.90;;;;;;4935184;28;20408;-94
2023/04/04 02:46:19;;;;;;;7.18;5.07;;;0.20;99.90;;;;;;4934895;28;20528;-95
2023/04/04 02:48:44;;;;;;;6.85;5.00;;;0.60;99.90;;;;;;4951507;28;20423;-93
2023/04/04 02:51:10;;;;;;;7.50;4.55;;;0.00;99.90;;;;;;4935770;28;20427;-94
2023/04/04 02:53:36;;;;;;;7.13;4.50;;;-0.10;99.90;;;;;;4934843;28;20404;-94
2023/04/04 02:56:02;;;;;;;5.70;3.63;;;-0.20;99.90;;;;;;4935967;28;20504;-92
2023/04/04 02:58:30;;;;;;;7.80;4.85;;;0.20;99.90;;;;;;4934301;28;20428;-93
2023/04/04 03:00:56;;;;;;;10.82;4.88;;;-0.10;99.90;;;;;;4935044;28;20450;-92
2023/04/04 03:03:21;;;;;;;7.95;4.97;;;-0.30;99.90;;;;;;4934998;28;20927;-94
2023/04/04 03:05:48;;;;;;;7.72;4.57;;;-0.20;99.90;;;;;;4935214;28;20876;-93
2023/04/04 03:08:14;;;;;;;7.80;4.75;;;-0.20;99.90;;;;;;4935014;28;20916;-94
2023/04/04 03:10:40;;;;;;;8.50;4.50;;;-0.30;99.90;;;;;;4934499;28;20404;-93
2023/04/04 03:13:06;;;;;;;7.13;4.40;;;-0.10;99.90;;;;;;4935355;28;20431;-93
2023/04/04 03:15:32;;;;;;;6.85;5.40;;;-0.30;99.90;;;;;;4936352;28;20435;-94
2023/04/04 03:17:58;;;;;;;9.57;5.38;;;-0.20;99.90;;;;;;4934962;28;20427;-94
2023/04/04 03:20:25;;;;;;;7.40;4.85;;;-0.20;99.90;;;;;;4934043;28;20412;-94
2023/04/04 03:22:51;;;;;;;9.27;5.68;;;-0.30;99.90;;;;;;4935092;28;20879;-94
2023/04/04 03:25:16;;;;;;;11.82;7.40;;;-0.30;99.90;;;;;;4933998;28;20435;-94
2023/04/04 03:27:42;;;;;;;10.15;6.47;;;-0.20;99.90;;;;;;4934978;28;20422;-94
2023/04/04 03:30:09;;;;;;;9.35;5.72;;;-0.30;99.90;;;;;;4935000;28;20416;-94
2023/04/04 03:32:40;;;;;;;8.35;5.75;;;-0.30;99.90;;;;;;4934179;28;20455;-94
2023/04/04 03:35:09;;;;;;;10.35;6.90;;;-0.30;99.90;;;;;;4950826;28;20413;-92
2023/04/04 03:37:35;;;;;;;10.43;6.95;;;0.30;99.90;;;;;;4935179;28;20432;-92
2023/04/04 03:40:01;;;;;;;12.67;7.00;;;-0.30;99.90;;;;;;4934351;28;20404;-93
2023/04/04 03:42:26;;;;;;;8.43;5.40;;;-0.30;99.90;;;;;;4933688;28;20408;-94
2023/04/04 03:44:52;;;;;;;8.93;6.07;;;-0.40;99.90;;;;;;4934836;28;20416;-94
2023/04/04 03:47:19;;;;;;;8.33;5.70;;;-0.40;99.90;;;;;;4934209;28;20427;-94
2023/04/04 03:49:45;;;;;;;9.15;5.70;;;-0.50;99.90;;;;;;4949796;28;20400;-93
2023/04/04 03:52:11;;;;;;;7.00;4.67;;;-0.50;99.90;;;;;;4934401;28;20894;-94
2023/04/04 03:54:36;;;;;;;7.10;4.53;;;-0.60;99.90;;;;;;4933761;28;20465;-94
2023/04/04 03:57:02;;;;;;;9.67;5.33;;;-0.80;99.90;;;;;;4934475;28;20508;-95
2023/04/04 03:59:28;;;;;;;8.73;5.57;;;-0.50;99.90;;;;;;4933330;28;20467;-93
2023/04/04 04:01:54;;;;;;;9.13;5.95;;;-0.80;99.90;;;;;;4934165;28;20434;-93
2023/04/04 04:04:19;;;;;;;8.43;6.33;;;-0.90;99.90;;;;;;4933804;28;20948;-93
2023/04/04 04:06:47;;;;;;;9.93;6.43;;;-0.80;99.90;;;;;;4933888;28;20408;-93
2023/04/04 04:09:13;;;;;;;8.02;4.95;;;-0.70;99.90;;;;;;4934055;28;20430;-93
2023/04/04 04:11:39;;;;;;;7.70;4.95;;;-0.80;99.90;;;;;;4933402;28;20401;-95
2023/04/04 04:14:05;;;;;;;8.47;6.70;;;-0.80;99.90;;;;;;4937878;28;20443;-94
2023/04/04 04:16:34;;;;;;;12.52;8.07;;;-0.30;99.90;;;;;;4937012;28;20843;-96
2023/04/04 04:19:01;;;;;;;9.95;6.85;;;-0.80;99.90;;;;;;4939303;28;20444;-93
2023/04/04 04:21:26;;;;;;;9.77;7.87;;;-0.80;99.90;;;;;;4937023;28;20573;-93
2023/04/04 04:23:52;;;;;;;11.97;7.93;;;-0.80;99.90;;;;;;4937614;28;20400;-93
2023/04/04 04:26:18;;;;;;;11.85;7.50;;;-0.70;99.90;;;;;;4937580;28;20490;-93
2023/04/04 04:28:46;;;;;;;9.93;6.60;;;-0.80;99.90;;;;;;4937592;28;20412;-94
2023/04/04 04:31:12;;;;;;;13.13;8.35;;;-0.80;99.90;;;;;;4937282;28;20412;-93
2023/04/04 04:33:38;;;;;;;11.20;8.00;;;-0.80;99.90;;;;;;4936785;28;20787;-93
2023/04/04 04:36:05;;;;;;;9.17;6.70;;;-0.70;99.90;;;;;;4937463;28;20416;-94
2023/04/04 04:38:32;;;;;;;8.57;5.97;;;-0.70;99.90;;;;;;4936970;28;20432;-94
2023/04/04 04:40:59;;;;;;;10.63;7.40;;;-0.80;99.90;;;;;;4937364;28;20411;-94
2023/04/04 04:43:25;;;;;;;11.05;6.72;;;-0.80;99.90;;;;;;4936346;28;20419;-94
2023/04/04 04:45:50;;;;;;;9.33;6.17;;;-0.80;99.90;;;;;;4937560;28;20423;-95
2023/04/04 04:48:16;;;;;;;8.20;5.90;;;-0.90;99.90;;;;;;4937468;28;20427;-93
2023/04/04 04:50:46;;;;;;;10.68;6.72;;;-1.00;99.90;;;;;;4936734;28;20415;-95
2023/04/04 04:53:13;;;;;;;10.20;7.30;;;-1.00;99.90;;;;;;4937299;28;20407;-95
2023/04/04 04:55:39;;;;;;;11.55;8.23;;;-1.00;99.90;;;;;;4936815;28;20522;-94
2023/04/04 04:58:05;;;;;;;10.77;8.38;;;-1.00;99.90;;;;;;4937263;28;20440;-94
2023/04/04 05:00:31;;;;;;;12.43;7.75;;;-0.90;99.90;;;;;;4936199;28;20487;-95
2023/04/04 05:02:59;;;;;;;9.13;6.00;;;-0.90;99.90;;;;;;4936946;28;20985;-95
2023/04/04 05:05:26;;;;;;;8.57;6.03;;;-0.70;99.90;;;;;;4936700;28;20416;-93
2023/04/04 05:07:51;;;;;;;11.38;7.95;;;-0.90;99.90;;;;;;4936711;28;20420;-95
2023/04/04 05:10:17;;;;;;;9.60;6.82;;;-0.80;99.90;;;;;;4937308;28;20466;-93
2023/04/04 05:12:44;;;;;;;9.32;6.70;;;-1.00;99.90;;;;;;4936220;28;20444;-93
2023/04/04 05:15:10;;;;;;;10.60;6.80;;;-1.00;99.90;;;;;;4937355;28;20819;-94
2023/04/04 05:17:37;;;;;;;8.48;6.03;;;-0.90;99.90;;;;;;4935959;28;20511;-94
2023/04/04 05:20:03;;;;;;;11.23;7.53;;;-0.80;99.90;;;;;;4936707;28;20874;-94
2023/04/04 05:22:29;;;;;;;10.50;7.07;;;-0.90;99.90;;;;;;4936308;28;20499;-94
2023/04/04 05:24:55;;;;;;;10.90;7.60;;;-0.80;99.90;;;;;;4936371;28;20485;-94
2023/04/04 05:27:21;;;;;;;10.52;7.45;;;-0.70;99.90;;;;;;4936773;28;20461;-95
2023/04/04 05:29:47;;;;;;;10.05;6.80;;;-0.60;99.90;;;;;;4936444;28;20957;-95
2023/04/04 05:32:13;;;;;;;9.82;7.68;;;-0.60;99.90;;;;;;4937147;28;20420;-93
2023/04/04 05:34:39;;;;;;;11.70;7.10;;;-0.60;99.90;;;;;;4936042;28;20412;-94
2023/04/04 05:37:05;;;;;;;13.80;8.65;;;-0.60;99.90;;;;;;4936515;28;20466;-95
2023/04/04 05:39:30;;;;;;;10.63;8.47;;;-0.50;99.90;;;;;;4936002;28;20474;-95
2023/04/04 05:41:56;;;;;;;12.07;8.80;;;-0.40;99.90;;;;;;4936288;28;20949;-95
2023/04/04 05:44:22;;;;;;;13.05;9.90;;;-0.40;99.90;;;;;;4936426;28;20418;-93
2023/04/04 05:46:48;;;;;;;12.88;9.60;;;-0.30;99.90;;;;;;4936179;28;20495;-95
2023/04/04 05:49:13;;;;;;;11.90;9.48;;;-0.30;99.90;;;;;;4936633;28;20434;-94
2023/04/04 05:51:39;;;;;;;12.77;8.98;;;-0.30;99.90;;;;;;4935917;28;20408;-94
2023/04/04 05:54:06;;;;;;;11.18;8.80;;;-0.10;99.90;;;;;;4936419;28;20475;-93
2023/04/04 05:56:32;;;;;;;9.52;7.68;;;-0.10;99.90;;;;;;4935344;28;20448;-93
2023/04/04 05:58:58;;;;;;;10.05;8.07;;;0.40;99.90;;;;;;4936244;28;20408;-94
2023/04/04 06:01:24;;;;;;;10.82;8.02;;;0.30;99.90;;;;;;4935351;28;20444;-93
2023/04/04 06:03:50;;;;;;;12.15;8.75;;;0.40;99.90;;;;;;4935915;28;20415;-93
2023/04/04 06:06:16;;;;;;;12.57;9.05;;;0.60;99.90;;;;;;4936486;28;20478;-94
2023/04/04 06:08:42;;;;;;;12.32;9.30;;;0.70;99.90;;;;;;4936288;28;20416;-94
2023/04/04 06:11:07;;;;;;;10.67;8.20;;;0.80;99.90;;;;;;4936131;28;20420;-94
2023/04/04 06:13:33;;;;;;;9.37;7.47;;;1.10;99.90;;;;;;4935041;28;21208;-94
2023/04/04 06:15:59;;;;;;;11.67;8.37;;;1.20;99.90;;;;;;4935710;28;20478;-93
2023/04/04 06:18:25;;;;;;;12.57;7.93;;;1.20;99.90;;;;;;4935112;28;20788;-94
2023/04/04 06:20:50;;;;;;;11.53;8.10;;;1.40;99.90;;;;;;4935908;28;20543;-93
2023/04/04 06:23:16;;;;;;;10.93;7.65;;;1.50;99.90;;;;;;4935285;28;20412;-93
2023/04/04 06:25:42;;;;;;;11.30;7.47;;;1.50;99.90;;;;;;4936010;28;20424;-93
2023/04/04 06:28:08;;;;;;;10.55;7.28;;;1.50;99.90;;;;;;4936121;28;20981;-93
2023/04/04 06:30:37;;;;;;;11.30;7.68;;;1.60;99.90;;;;;;4935595;28;20478;-93
2023/04/04 06:33:05;;;;;;;9.77;7.32;;;1.70;99.90;;;;;;4935641;28;20424;-93
2023/04/04 06:35:31;;;;;;;9.30;7.15;;;1.70;99.90;;;;;;4934267;28;20420;-93
2023/04/04 06:37:57;;;;;;;9.25;6.35;;;1.70;99.90;;;;;;4935660;28;20786;-93
2023/04/04 06:40:23;;;;;;;9.95;6.95;;;1.90;99.90;;;;;;4934701;28;20408;-93
2023/04/04 06:42:50;;;;;;;12.82;8.05;;;2.10;99.90;;;;;;4935679;28;20970;-96
2023/04/04 06:45:16;;;;;;;10.07;7.07;;;2.20;99.90;;;;;;4935964;28;20906;-94
2023/04/04 06:47:42;;;;;;;9.47;7.07;;;2.10;99.90;;;;;;4935102;28;20597;-93
2023/04/04 06:50:09;;;;;;;9.40;6.50;;;2.40;99.90;;;;;;4936089;28;20907;-93
2023/04/04 06:52:35;;;;;;;10.40;6.77;;;2.20;99.90;;;;;;4935181;28;20918;-93
2023/04/04 06:55:01;;;;;;;8.77;6.63;;;2.40;99.90;;;;;;4935870;28;20413;-93
2023/04/04 06:57:27;;;;;;;9.13;6.40;;;2.10;99.90;;;;;;4934990;28;20538;-94
2023/04/04 06:59:53;;;;;;;8.53;6.20;;;2.30;99.90;;;;;;4936094;28;20925;-93
2023/04/04 07:02:18;;;;;;;9.57;5.80;;;2.30;99.90;;;;;;4935200;28;20415;-91
2023/04/04 07:04:44;;;;;;;10.73;5.53;;;2.40;99.90;;;;;;4935365;28;20407;-93
2023/04/04 07:07:11;;;;;;;10.13;6.23;;;2.50;99.90;;;;;;4935656;28;20408;-92
2023/04/04 07:09:36;;;;;;;7.18;5.25;;;2.30;99.90;;;;;;4934849;28;20404;-92
2023/04/04 07:12:02;;;;;;;8.68;5.32;;;2.30;99.90;;;;;;4935268;28;20470;-95
2023/04/04 07:14:28;;;;;;;8.52;5.00;;;2.30;99.90;;;;;;4934784;28;20411;-92
2023/04/04 07:16:54;;;;;;;6.72;4.97;;;2.50;99.90;;;;;;4935118;28;20424;-92
2023/04/04 07:19:22;;;;;;;8.82;5.03;;;2.60;99.90;;;;;;4934869;28;20412;-93
2023/04/04 07:21:49;;;;;;;7.68;5.13;;;2.70;99.90;;;;;;4935665;28;20507;-91
2023/04/04 07:24:14;;;;;;;8.75;4.55;;;2.80;99.90;;;;;;4935124;28;20420;-94
2023/04/04 07:26:40;;;;;;;6.47;4.10;;;2.80;99.90;;;;;;4934685;28;20408;-93
2023/04/04 07:29:06;;;;;;;6.47;4.28;;;3.00;99.90;;;;;;4935176;28;20416;-93
2023/04/04 07:31:32;;;;;;;8.13;4.60;;;3.00;99.90;;;;;;4934755;28;20592;-93
2023/04/04 07:33:58;;;;;;;6.97;4.78;;;3.40;99.90;;;;;;4934641;28;20480;-93
2023/04/04 07:36:23;;;;;;;8.23;4.50;;;3.20;99.90;;;;;;4934693;28;20427;-94
2023/04/04 07:38:49;;;;;;;8.93;4.20;;;3.50;99.90;;;;;;4934960;28;20914;-93
2023/04/04 07:41:15;;;;;;;6.57;4.00;;;3.60;99.90;;;;;;4934710;28;20648;-93
2023/04/04 07:43:41;;;;;;;7.77;4.37;;;3.70;99.90;;;;;;4934980;28;20415;-92
2023/04/04 07:46:06;;;;;;;6.47;4.20;;;3.80;99.90;;;;;;4934600;28;20752;-95
2023/04/04 07:48:32;;;;;;;6.65;3.88;;;4.10;99.90;;;;;;4949647;28;20677;-92
2023/04/04 07:51:00;;;;;;;5.43;3.75;;;4.10;99.90;;;;;;4934862;28;20476;-92
2023/04/04 07:53:26;;;;;;;5.15;3.70;;;4.30;99.90;;;;;;4934771;28;21154;-92
2023/04/04 07:55:52;;;;;;;7.07;3.90;;;4.40;99.90;;;;;;4934932;28;20820;-93
2023/04/04 07:58:20;;;;;;;5.07;2.95;;;4.80;99.90;;;;;;4934036;28;20428;-93
2023/04/04 08:00:46;;;;;;;6.22;2.90;;;4.80;99.90;;;;;;4934701;28;20416;-93
2023/04/04 08:03:11;;;;;;;3.85;2.17;;;5.40;99.90;;;;;;4934471;28;20431;-93
2023/04/04 08:05:37;;;;;;;6.18;2.95;;;5.10;98.80;;;;;;4934722;28;20922;-92
2023/04/04 08:08:03;;;;;;;5.82;2.53;;;5.20;98.30;;;;;;4934655;28;20907;-93
2023/04/04 08:10:29;;;;;;;5.47;2.63;;;5.20;98.40;;;;;;4933952;28;20522;-92
2023/04/04 08:12:54;;;;;;;4.37;1.50;;;5.30;99.90;;;;;;4934587;28;20412;-92
2023/04/04 08:15:20;;;;;;;4.17;1.67;;;5.10;90.60;;;;;;4933584;28;20467;-93
2023/04/04 08:17:46;;;;;;;3.97;1.58;;;5.10;94.10;;;;;;4934091;28;20546;-93
2023/04/04 08:20:12;;;;;;;4.07;2.20;;;5.20;90.80;;;;;;4934264;28;20412;-92
2023/04/04 08:22:39;;;;;;;5.53;2.40;;;5.10;89.80;;;;;;4934255;28;20507;-92
2023/04/04 08:25:05;;;;;;;5.07;2.42;;;5.20;91.30;;;;;;4934919;28;20404;-92
2023/04/04 08:27:31;;;;;;;4.88;2.08;;;5.20;96.00;;;;;;4933829;28;20428;-93
2023/04/04 08:29:57;;;;;;;4.25;1.92;;;5.80;95.80;;;;;;4934398;28;20740;-93
2023/04/04 08:32:23;;;;;;;5.53;1.90;;;5.90;93.80;;;;;;4933946;28;20427;-93
2023/04/04 08:34:50;;;;;;;4.80;2.10;;;6.20;90.10;;;;;;4934821;28;20906;-93
2023/04/04 08:37:16;;;;;;;3.65;1.95;;;5.90;90.60;;;;;;4933474;28;20428;-92
2023/04/04 08:39:42;;;;;;;4.38;1.75;;;6.10;91.50;;;;;;4934051;28;20431;-93
2023/04/04 08:42:09;;;;;;;4.37;1.17;;;6.00;83.00;;;;;;4934053;28;20411;-93
2023/04/04 08:44:38;;;;;;;2.83;1.10;;;6.40;72.90;;;;;;4933897;28;20495;-93
2023/04/04 08:47:07;;;;;;;3.60;1.40;;;6.00;73.90;;;;;;4934225;28;20451;-92
2023/04/04 08:49:36;;;;;;;3.15;1.20;;;5.80;75.70;;;;;;4949226;28;20665;-93
2023/04/04 08:52:05;;;;;;;3.13;1.30;;;6.20;77.40;;;;;;4934153;28;20921;-92
2023/04/04 08:54:33;;;;;;;4.53;1.35;;;5.80;71.70;;;;;;4933619;28;20414;-92
2023/04/04 08:56:59;;;;;;;3.47;1.30;;;6.10;79.90;;;;;;4934074;28;20474;-91
2023/04/04 08:59:25;;;;;;;3.38;0.95;;;5.80;82.30;;;;;;4936144;28;20444;-93
2023/04/04 09:02:04;;;;;;;3.58;1.10;;;6.20;73.20;;;;;;4937269;28;20785;-93
2023/04/04 09:04:30;;;;;;;3.03;1.10;;;6.30;74.50;;;;;;4937440;28;20412;-94
2023/04/04 09:06:58;;;;;;;3.30;1.00;;;6.40;73.00;;;;;;4936786;28;20408;-93
2023/04/04 09:09:24;;;;;;;3.47;1.00;;;6.80;67.50;;;;;;4937445;28;20424;-94
2023/04/04 09:11:51;;;;;;;4.27;1.07;;;6.50;64.60;;;;;;4936327;28;20494;-93
2023/04/04 09:14:20;;;;;;;4.32;1.35;;;6.90;67.10;;;;;;4937073;28;20542;-92
2023/04/04 09:16:45;;;;;;;3.30;0.88;;;7.10;66.00;;;;;;4937284;28;20428;-92
2023/04/04 09:19:11;;;;;;;3.78;1.00;;;7.20;63.90;;;;;;4936642;28;20474;-92
2023/04/04 09:21:38;;;;;;;3.58;1.15;;;7.60;61.90;;;;;;4937992;28;20982;-92
2023/04/04 09:24:04;;;;;;;3.38;1.00;;;7.30;63.00;;;;;;4936540;28;20416;-92
2023/04/04 09:26:52;;;;;;;3.83;0.95;;;7.30;63.40;;;;;;4937032;28;20400;-94
2023/04/04 09:29:20;;;;;;;2.83;1.00;;;7.30;65.90;;;;;;4936604;28;20451;-92
2023/04/04 09:31:48;;;;;;;3.78;1.02;;;7.40;64.40;;;;;;4936655;28;20408;-92
2023/04/04 09:34:18;;;;;;;2.28;0.70;;;7.50;64.90;;;;;;4937157;28;20420;-92
2023/04/04 09:36:45;;;;;;;3.30;0.90;;;7.30;66.10;;;;;;4936561;28;20436;-93
2023/04/04 09:39:12;;;;;;;3.10;0.73;;;7.70;67.70;;;;;;4936666;28;20411;-93
2023/04/04 09:41:39;;;;;;;4.53;0.90;;;7.70;62.70;;;;;;4936246;28;20412;-91
2023/04/04 09:44:06;;;;;;;2.92;0.90;;;7.90;64.00;;;;;;4936932;28;20408;-94
2023/04/04 09:46:34;;;;;;;2.47;0.60;;;7.90;64.30;;;;;;4935846;28;20416;-91
2023/04/04 09:49:00;;;;;;;3.33;0.77;;;7.80;61.90;;;;;;4936450;28;20498;-91
2023/04/04 09:51:37;;;;;;;4.53;1.10;;;8.10;61.20;;;;;;4936416;28;20498;-93
2023/04/04 09:54:05;;;;;;;2.67;0.80;;;8.30;65.00;;;;;;4936299;28;20404;-94
2023/04/04 09:56:33;;;;;;;4.03;0.80;;;8.60;63.00;;;;;;4937040;28;20419;-92
2023/04/04 09:59:01;;;;;;;4.10;1.25;;;8.80;62.50;;;;;;4935633;28;20801;-93
2023/04/04 10:01:27;;;;;;;3.53;0.85;;;9.20;65.50;;;;;;4936653;28;20424;-93
2023/04/04 10:03:54;;;;;;;3.05;0.77;;;9.60;62.60;;;;;;4935781;28;20408;-94
2023/04/04 10:06:21;;;;;;;4.60;0.80;;;10.10;54.30;;;;;;4936058;28;20448;-94
2023/04/04 10:08:47;;;;;;;4.07;1.30;;;9.90;53.70;;;;;;4936693;28;20400;-93
2023/04/04 10:11:26;;;;;;;3.10;0.82;;;10.60;57.40;;;;;;4935256;28;20833;-93
2023/04/04 10:13:51;;;;;;;4.10;1.02;;;11.30;52.30;;;;;;4936535;28;20420;-92
2023/04/04 10:16:17;;;;;;;5.00;1.50;;;11.80;52.50;;;;;;4935169;28;21110;-95
2023/04/04 10:18:44;;;;;;;4.03;1.50;;;12.30;51.90;;;;;;4935635;28;20954;-93
2023/04/04 10:21:10;;;;;;;3.72;1.45;;;12.80;45.70;;;;;;4935585;28;20450;-93
2023/04/04 10:23:37;;;;;;;5.27;1.57;;;12.90;49.40;;;;;;4936270;28;20456;-94
2023/04/04 10:26:02;;;;;;;3.40;1.55;;;13.50;48.40;;;;;;4935919;28;20775;-94
2023/04/04 10:28:28;;;;;;;3.90;1.10;;;13.70;48.00;;;;;;4935574;28;20408;-95
2023/04/04 10:31:23;;;;;;;4.40;1.38;;;14.20;47.00;;;;;;4936452;28;20411;-94
2023/04/04 10:34:14;;;;;;;4.25;1.50;;;14.40;46.10;;;;;;4935242;28;20483;-94
2023/04/04 10:36:52;;;;;;;2.80;1.20;;;14.50;42.60;;;;;;4929077;28;20424;-92
2023/04/04 10:39:28;;;;;;;4.43;1.52;;;14.80;42.60;;;;;;4936590;28;20420;-94
2023/04/04 10:41:56;;;;;;;4.15;1.40;;;15.10;45.30;;;;;;4934812;28;20494;-94
2023/04/04 10:44:28;;;;;;;4.85;1.67;;;15.30;42.40;;;;;;4935862;28;20412;-93
2023/04/04 10:46:57;;;;;;;4.43;1.77;;;15.70;41.00;;;;;;4934955;28;20409;-95
2023/04/04 10:49:23;;;;;;;3.55;1.88;;;15.90;38.80;;;;;;4951428;28;20448;-94
2023/04/04 10:51:51;;;;;;;3.10;1.52;;;16.10;41.70;;;;;;4935083;28;20495;-94
2023/04/04 10:54:17;;;;;;;3.08;1.60;;;16.40;41.00;;;;;;4936655;28;20470;-95
2023/04/04 10:56:44;;;;;;;4.07;1.55;;;16.60;39.80;;;;;;4936696;28;20420;-93
2023/04/04 10:59:15;;;;;;;3.28;1.30;;;16.40;42.40;;;;;;4934587;28;20411;-94
2023/04/04 11:02:07;;;;;;;3.30;1.92;;;16.40;40.30;;;;;;4935536;28;20990;-93
2023/04/04 11:04:41;;;;;;;3.83;1.65;;;16.40;39.60;;;;;;4931935;28;20595;-94
2023/04/04 11:07:06;;;;;;;3.60;1.42;;;16.40;42.00;;;;;;4935051;28;20428;-94
2023/04/04 11:10:11;;;;;;;3.93;1.47;;;16.30;37.00;;;;;;4951408;28;20416;-93
2023/04/04 11:12:44;;;;;;;3.50;1.42;;;15.80;42.40;;;;;;4925921;28;20432;-94
2023/04/04 11:15:11;;;;;;;3.03;1.50;;;15.70;39.10;;;;;;4935768;28;20468;-95
2023/04/04 11:18:05;;;;;;;3.55;1.60;;;15.30;38.60;;;;;;4934528;28;20436;-94
2023/04/04 11:20:34;;;;;;;3.50;1.40;;;15.30;40.00;;;;;;4934712;28;20416;-94
2023/04/04 11:23:09;;;;;;;2.90;1.42;;;15.60;41.80;;;;;;4934831;28;20415;-95
2023/04/04 11:25:50;;;;;;;3.28;1.58;;;15.40;41.80;;;;;;4949980;28;20965;-94
2023/04/04 11:28:34;;;;;;;4.10;1.70;;;15.30;41.10;;;;;;4934897;28;20837;-93
2023/04/04 11:31:18;;;;;;;4.40;1.70;;;15.60;40.60;;;;;;4950433;28;20428;-94
2023/04/04 11:33:59;;;;;;;3.33;1.52;;;14.70;40.40;;;;;;4950602;28;20935;-93
2023/04/04 11:36:37;;;;;;;3.65;1.80;;;14.30;41.30;;;;;;4950869;28;20455;-94
2023/04/04 11:39:14;;;;;;;3.30;1.70;;;13.70;41.50;;;;;;4949781;28;20646;-95
2023/04/04 11:41:43;;;;;;;3.88;1.80;;;13.60;42.80;;;;;;4934489;28;20451;-93
2023/04/04 11:44:10;;;;;;;3.47;1.60;;;14.10;44.50;;;;;;4950337;28;20435;-94
2023/04/04 11:46:36;;;;;;;4.38;1.40;;;14.40;44.80;;;;;;4933985;28;20412;-94
2023/04/04 11:49:02;;;;;;;3.75;1.90;;;14.60;44.70;;;;;;4950812;28;20451;-92
2023/04/04 11:51:30;;;;;;;3.08;1.60;;;14.80;41.50;;;;;;4936100;28;20460;-93
2023/04/04 11:53:56;;;;;;;3.65;1.70;;;14.90;43.70;;;;;;4934834;28;20850;-94
2023/04/04 11:56:23;;;;;;;3.20;1.43;;;15.20;45.50;;;;;;4934163;28;20503;-94
2023/04/04 11:58:50;;;;;;;3.80;1.60;;;15.40;44.10;;;;;;4934804;28;21014;-94
2023/04/04 12:01:18;;;;;;;3.10;1.50;;;16.00;43.60;;;;;;4934058;28;20455;-94
2023/04/04 12:03:43;;;;;;;3.75;2.00;;;16.20;43.30;;;;;;4934330;28;20776;-94
2023/04/04 12:06:15;;;;;;;3.13;1.80;;;16.80;42.20;;;;;;4935173;28;20424;-94
2023/04/04 12:08:41;;;;;;;2.72;1.60;;;17.10;38.90;;;;;;4935005;28;21040;-94
2023/04/04 12:11:09;;;;;;;4.60;1.80;;;17.10;41.70;;;;;;4934640;28;20404;-93
2023/04/04 12:13:41;;;;;;;3.78;1.80;;;17.00;37.60;;;;;;4933582;28;20452;-94
2023/04/04 12:16:07;;;;;;;3.27;1.50;;;17.30;39.00;;;;;;4933928;28;20408;-93
2023/04/04 12:18:33;;;;;;;3.80;1.98;;;17.40;36.50;;;;;;4933822;28;20476;-94
2023/04/04 12:21:00;;;;;;;4.70;1.63;;;17.60;36.30;;;;;;4934535;28;20521;-95
2023/04/04 12:23:27;;;;;;;2.10;1.30;;;17.60;38.60;;;;;;4934314;28;20443;-93
2023/04/04 12:25:55;;;;;;;3.63;1.52;;;17.30;38.00;;;;;;4934001;28;20416;-93
2023/04/04 12:28:22;;;;;;;4.68;1.70;;;16.70;35.40;;;;;;4934814;28;20503;-93
2023/04/04 12:30:48;;;;;;;2.90;1.57;;;16.20;36.70;;;;;;4933251;28;20408;-93
2023/04/04 12:33:14;;;;;;;4.28;1.70;;;15.90;36.40;;;;;;4934937;28;20420;-96
2023/04/04 12:35:40;;;;;;;4.05;1.90;;;16.10;41.70;;;;;;4937045;28;20438;-94
2023/04/04 12:38:12;;;;;;;3.50;1.60;;;16.30;40.80;;;;;;4937788;28;20435;-93
2023/04/04 12:40:38;;;;;;;4.03;1.70;;;16.20;36.70;;;;;;4937705;28;20458;-94
2023/04/04 12:43:06;;;;;;;4.47;1.90;;;16.20;37.80;;;;;;4937252;28;20452;-95
2023/04/04 12:45:31;;;;;;;4.38;2.17;;;16.10;38.90;;;;;;4938340;28;20435;-94
2023/04/04 12:47:57;;;;;;;4.57;1.90;;;16.50;36.00;;;;;;4936621;28;20447;-93
2023/04/04 12:50:26;;;;;;;2.97;1.90;;;16.80;37.20;;;;;;4954019;28;20415;-95
2023/04/04 12:53:01;;;;;;;3.40;1.85;;;17.10;37.60;;;;;;4937512;28;20498;-94